sensor_id;sensor_type;location;lat;lon;timestamp;temperature;humidity
11666;DHT22;5889;51.350;6.708;2023-06-22T00:00:12;23.10;94.80
11666;DHT22;5889;51.350;6.708;2023-06-22T00:02:39;23.10;94.80
11666;DHT22;5889;51.350;6.708;2023-06-22T00:05:07;23.10;94.80
11666;DHT22;5889;51.350;6.708;2023-06-22T00:07:34;23.10;95.00
11666;DHT22;5889;51.350;6.708;2023-06-22T00:10:00;23.00;95.30
11666;DHT22;5889;51.350;6.708;2023-06-22T00:12:29;23.00;95.30
11666;DHT22;5889;51.350;6.708;2023-06-22T00:14:57;23.00;95.50
11666;DHT22;5889;51.350;6.708;2023-06-22T00:17:24;22.90;95.70
11666;DHT22;5889;51.350;6.708;2023-06-22T00:19:51;22.90;95.80
11666;DHT22;5889;51.350;6.708;2023-06-22T00:22:21;22.90;96.00
11666;DHT22;5889;51.350;6.708;2023-06-22T00:24:54;22.90;96.10
11666;DHT22;5889;51.350;6.708;2023-06-22T00:27:21;22.90;96.10
11666;DHT22;5889;51.350;6.708;2023-06-22T00:29:50;22.90;96.20
11666;DHT22;5889;51.350;6.708;2023-06-22T00:32:17;23.00;96.30
11666;DHT22;5889;51.350;6.708;2023-06-22T00:34:44;22.90;96.40
11666;DHT22;5889;51.350;6.708;2023-06-22T00:37:11;22.80;96.60
11666;DHT22;5889;51.350;6.708;2023-06-22T00:39:38;22.80;96.80
11666;DHT22;5889;51.350;6.708;2023-06-22T00:42:05;22.80;96.90
11666;DHT22;5889;51.350;6.708;2023-06-22T00:44:32;22.70;97.10
11666;DHT22;5889;51.350;6.708;2023-06-22T00:47:00;22.70;97.20
11666;DHT22;5889;51.350;6.708;2023-06-22T00:49:28;22.70;97.50
11666;DHT22;5889;51.350;6.708;2023-06-22T00:51:56;22.60;97.60
11666;DHT22;5889;51.350;6.708;2023-06-22T00:54:24;22.60;97.80
11666;DHT22;5889;51.350;6.708;2023-06-22T00:56:51;22.50;98.10
11666;DHT22;5889;51.350;6.708;2023-06-22T00:59:20;22.40;98.40
11666;DHT22;5889;51.350;6.708;2023-06-22T01:01:47;22.40;98.70
11666;DHT22;5889;51.350;6.708;2023-06-22T01:04:16;22.40;98.80
11666;DHT22;5889;51.350;6.708;2023-06-22T01:06:47;22.40;98.90
11666;DHT22;5889;51.350;6.708;2023-06-22T01:09:21;22.40;99.00
11666;DHT22;5889;51.350;6.708;2023-06-22T01:11:52;22.40;99.10
11666;DHT22;5889;51.350;6.708;2023-06-22T01:14:26;22.40;99.10
11666;DHT22;5889;51.350;6.708;2023-06-22T01:16:55;22.40;99.30
11666;DHT22;5889;51.350;6.708;2023-06-22T01:19:37;22.40;99.40
11666;DHT22;5889;51.350;6.708;2023-06-22T01:22:08;22.40;99.60
11666;DHT22;5889;51.350;6.708;2023-06-22T01:24:48;22.40;99.70
11666;DHT22;5889;51.350;6.708;2023-06-22T01:27:32;22.40;99.80
11666;DHT22;5889;51.350;6.708;2023-06-22T01:30:02;22.40;99.90
11666;DHT22;5889;51.350;6.708;2023-06-22T01:32:33;22.40;99.90
11666;DHT22;5889;51.350;6.708;2023-06-22T01:35:03;22.30;99.90
11666;DHT22;5889;51.350;6.708;2023-06-22T01:37:31;22.20;99.90
11666;DHT22;5889;51.350;6.708;2023-06-22T01:40:02;22.20;99.90
11666;DHT22;5889;51.350;6.708;2023-06-22T01:42:30;22.20;99.90
11666;DHT22;5889;51.350;6.708;2023-06-22T01:44:58;22.10;99.90
11666;DHT22;5889;51.350;6.708;2023-06-22T01:47:27;22.20;99.90
11666;DHT22;5889;51.350;6.708;2023-06-22T01:49:55;22.20;99.90
11666;DHT22;5889;51.350;6.708;2023-06-22T01:52:22;22.20;99.90
11666;DHT22;5889;51.350;6.708;2023-06-22T01:54:49;22.20;99.90
11666;DHT22;5889;51.350;6.708;2023-06-22T01:57:16;22.20;99.90
11666;DHT22;5889;51.350;6.708;2023-06-22T01:59:48;22.10;99.90
11666;DHT22;5889;51.350;6.708;2023-06-22T02:02:20;22.10;99.90
11666;DHT22;5889;51.350;6.708;2023-06-22T02:04:56;22.10;99.90
11666;DHT22;5889;51.350;6.708;2023-06-22T02:07:28;22.10;99.90
11666;DHT22;5889;51.350;6.708;2023-06-22T02:09:58;22.10;99.90
11666;DHT22;5889;51.350;6.708;2023-06-22T02:12:26;22.10;99.90
11666;DHT22;5889;51.350;6.708;2023-06-22T02:14:54;22.10;99.90
11666;DHT22;5889;51.350;6.708;2023-06-22T02:17:22;22.10;99.90
11666;DHT22;5889;51.350;6.708;2023-06-22T02:19:50;22.10;99.90
11666;DHT22;5889;51.350;6.708;2023-06-22T02:22:18;22.10;99.90
11666;DHT22;5889;51.350;6.708;2023-06-22T02:24:45;22.10;99.90
11666;DHT22;5889;51.350;6.708;2023-06-22T02:27:12;22.20;99.90
11666;DHT22;5889;51.350;6.708;2023-06-22T02:29:39;22.10;99.90
11666;DHT22;5889;51.350;6.708;2023-06-22T02:32:06;21.90;99.90
11666;DHT22;5889;51.350;6.708;2023-06-22T02:34:33;21.90;99.90
11666;DHT22;5889;51.350;6.708;2023-06-22T02:37:02;21.90;99.90
11666;DHT22;5889;51.350;6.708;2023-06-22T02:39:30;21.90;99.90
11666;DHT22;5889;51.350;6.708;2023-06-22T02:41:57;21.90;99.90
11666;DHT22;5889;51.350;6.708;2023-06-22T02:44:24;21.90;99.90
11666;DHT22;5889;51.350;6.708;2023-06-22T02:46:51;21.90;99.90
11666;DHT22;5889;51.350;6.708;2023-06-22T02:49:20;21.90;99.90
11666;DHT22;5889;51.350;6.708;2023-06-22T02:51:47;21.90;99.90
11666;DHT22;5889;51.350;6.708;2023-06-22T02:54:15;21.90;99.90
11666;DHT22;5889;51.350;6.708;2023-06-22T02:56:45;21.80;99.90
11666;DHT22;5889;51.350;6.708;2023-06-22T02:59:16;21.80;99.90
11666;DHT22;5889;51.350;6.708;2023-06-22T03:01:43;21.80;99.90
11666;DHT22;5889;51.350;6.708;2023-06-22T03:04:13;21.80;99.90
11666;DHT22;5889;51.350;6.708;2023-06-22T03:06:41;21.80;99.90
11666;DHT22;5889;51.350;6.708;2023-06-22T03:09:10;21.70;99.90
11666;DHT22;5889;51.350;6.708;2023-06-22T03:11:37;21.70;99.90
11666;DHT22;5889;51.350;6.708;2023-06-22T03:14:06;21.60;99.90
11666;DHT22;5889;51.350;6.708;2023-06-22T03:16:33;21.60;99.90
11666;DHT22;5889;51.350;6.708;2023-06-22T03:19:00;21.60;99.90
11666;DHT22;5889;51.350;6.708;2023-06-22T03:21:28;21.60;99.90
11666;DHT22;5889;51.350;6.708;2023-06-22T03:23:55;21.60;99.90
11666;DHT22;5889;51.350;6.708;2023-06-22T03:26:22;21.50;99.90
11666;DHT22;5889;51.350;6.708;2023-06-22T03:28:52;21.50;99.90
11666;DHT22;5889;51.350;6.708;2023-06-22T03:31:20;21.50;99.90
11666;DHT22;5889;51.350;6.708;2023-06-22T03:33:50;21.50;99.90
11666;DHT22;5889;51.350;6.708;2023-06-22T03:36:18;21.50;99.90
11666;DHT22;5889;51.350;6.708;2023-06-22T03:38:45;21.50;99.90
11666;DHT22;5889;51.350;6.708;2023-06-22T03:41:12;21.50;99.90
11666;DHT22;5889;51.350;6.708;2023-06-22T03:43:39;21.50;99.90
11666;DHT22;5889;51.350;6.708;2023-06-22T03:46:07;21.50;99.90
11666;DHT22;5889;51.350;6.708;2023-06-22T03:48:35;21.50;99.90
11666;DHT22;5889;51.350;6.708;2023-06-22T03:51:02;21.50;99.90
11666;DHT22;5889;51.350;6.708;2023-06-22T03:53:29;21.50;99.90
11666;DHT22;5889;51.350;6.708;2023-06-22T03:55:56;21.50;99.90
11666;DHT22;5889;51.350;6.708;2023-06-22T03:58:23;21.50;99.90
11666;DHT22;5889;51.350;6.708;2023-06-22T04:00:51;21.50;99.90
11666;DHT22;5889;51.350;6.708;2023-06-22T04:03:19;21.60;99.90
11666;DHT22;5889;51.350;6.708;2023-06-22T04:05:47;21.60;99.90
11666;DHT22;5889;51.350;6.708;2023-06-22T04:08:14;21.70;99.90
11666;DHT22;5889;51.350;6.708;2023-06-22T04:10:42;21.70;99.90
11666;DHT22;5889;51.350;6.708;2023-06-22T04:13:09;21.70;99.90
11666;DHT22;5889;51.350;6.708;2023-06-22T04:15:36;21.70;99.90
11666;DHT22;5889;51.350;6.708;2023-06-22T04:18:03;21.70;99.90
11666;DHT22;5889;51.350;6.708;2023-06-22T04:20:31;21.70;99.90
11666;DHT22;5889;51.350;6.708;2023-06-22T04:22:59;21.70;99.90
11666;DHT22;5889;51.350;6.708;2023-06-22T04:25:26;21.70;99.90
11666;DHT22;5889;51.350;6.708;2023-06-22T04:27:53;21.70;99.90
11666;DHT22;5889;51.350;6.708;2023-06-22T04:30:20;21.70;99.90
11666;DHT22;5889;51.350;6.708;2023-06-22T04:32:47;21.70;99.90
11666;DHT22;5889;51.350;6.708;2023-06-22T04:35:21;21.70;99.90
11666;DHT22;5889;51.350;6.708;2023-06-22T04:37:50;21.70;99.90
11666;DHT22;5889;51.350;6.708;2023-06-22T04:40:21;21.70;99.90
11666;DHT22;5889;51.350;6.708;2023-06-22T04:42:48;21.70;99.90
11666;DHT22;5889;51.350;6.708;2023-06-22T04:45:19;21.70;99.90
11666;DHT22;5889;51.350;6.708;2023-06-22T04:47:46;21.80;99.90
11666;DHT22;5889;51.350;6.708;2023-06-22T04:50:13;21.80;99.90
11666;DHT22;5889;51.350;6.708;2023-06-22T04:52:40;21.80;99.90
11666;DHT22;5889;51.350;6.708;2023-06-22T04:55:08;21.80;99.90
11666;DHT22;5889;51.350;6.708;2023-06-22T04:57:36;21.80;99.90
11666;DHT22;5889;51.350;6.708;2023-06-22T05:00:06;21.70;99.90
11666;DHT22;5889;51.350;6.708;2023-06-22T05:02:43;21.60;99.90
11666;DHT22;5889;51.350;6.708;2023-06-22T05:05:11;21.50;99.90
11666;DHT22;5889;51.350;6.708;2023-06-22T05:07:41;21.50;99.90
11666;DHT22;5889;51.350;6.708;2023-06-22T05:10:10;21.50;99.90
11666;DHT22;5889;51.350;6.708;2023-06-22T05:12:39;21.50;99.90
11666;DHT22;5889;51.350;6.708;2023-06-22T05:15:07;21.60;99.90
11666;DHT22;5889;51.350;6.708;2023-06-22T05:17:34;21.60;99.90
11666;DHT22;5889;51.350;6.708;2023-06-22T05:20:01;21.60;99.90
11666;DHT22;5889;51.350;6.708;2023-06-22T05:22:31;21.60;99.90
11666;DHT22;5889;51.350;6.708;2023-06-22T05:25:00;21.60;99.90
11666;DHT22;5889;51.350;6.708;2023-06-22T05:27:27;21.70;99.90
11666;DHT22;5889;51.350;6.708;2023-06-22T05:29:55;21.70;99.90
11666;DHT22;5889;51.350;6.708;2023-06-22T05:32:22;21.80;99.90
11666;DHT22;5889;51.350;6.708;2023-06-22T05:34:50;21.80;99.90
11666;DHT22;5889;51.350;6.708;2023-06-22T05:37:17;21.90;99.90
11666;DHT22;5889;51.350;6.708;2023-06-22T05:39:44;22.00;99.90
11666;DHT22;5889;51.350;6.708;2023-06-22T05:42:11;22.10;99.90
11666;DHT22;5889;51.350;6.708;2023-06-22T05:44:38;22.10;99.90
11666;DHT22;5889;51.350;6.708;2023-06-22T05:47:07;22.10;99.90
11666;DHT22;5889;51.350;6.708;2023-06-22T05:49:34;22.10;99.90
11666;DHT22;5889;51.350;6.708;2023-06-22T05:52:02;22.10;99.90
11666;DHT22;5889;51.350;6.708;2023-06-22T05:54:30;22.00;99.90
11666;DHT22;5889;51.350;6.708;2023-06-22T05:56:57;22.00;99.90
11666;DHT22;5889;51.350;6.708;2023-06-22T05:59:24;22.00;99.90
11666;DHT22;5889;51.350;6.708;2023-06-22T06:01:51;21.90;99.90
11666;DHT22;5889;51.350;6.708;2023-06-22T06:04:19;21.90;99.90
11666;DHT22;5889;51.350;6.708;2023-06-22T06:06:46;21.80;99.90
11666;DHT22;5889;51.350;6.708;2023-06-22T06:09:13;21.80;99.90
11666;DHT22;5889;51.350;6.708;2023-06-22T06:11:40;21.80;99.90
11666;DHT22;5889;51.350;6.708;2023-06-22T06:14:07;21.70;99.90
11666;DHT22;5889;51.350;6.708;2023-06-22T06:16:34;21.70;99.90
11666;DHT22;5889;51.350;6.708;2023-06-22T06:19:01;21.60;99.90
11666;DHT22;5889;51.350;6.708;2023-06-22T06:21:30;21.60;99.90
11666;DHT22;5889;51.350;6.708;2023-06-22T06:23:57;21.50;99.90
11666;DHT22;5889;51.350;6.708;2023-06-22T06:26:24;21.50;99.90
11666;DHT22;5889;51.350;6.708;2023-06-22T06:28:56;21.50;99.90
11666;DHT22;5889;51.350;6.708;2023-06-22T06:31:23;21.50;99.90
11666;DHT22;5889;51.350;6.708;2023-06-22T06:33:53;21.50;99.90
11666;DHT22;5889;51.350;6.708;2023-06-22T06:36:20;21.50;99.90
11666;DHT22;5889;51.350;6.708;2023-06-22T06:38:49;21.50;99.90
11666;DHT22;5889;51.350;6.708;2023-06-22T06:41:16;21.60;99.90
11666;DHT22;5889;51.350;6.708;2023-06-22T06:43:43;21.70;99.90
11666;DHT22;5889;51.350;6.708;2023-06-22T06:46:10;21.70;99.90
11666;DHT22;5889;51.350;6.708;2023-06-22T06:48:37;21.80;99.90
11666;DHT22;5889;51.350;6.708;2023-06-22T06:51:05;21.90;99.90
11666;DHT22;5889;51.350;6.708;2023-06-22T06:53:35;22.00;99.90
11666;DHT22;5889;51.350;6.708;2023-06-22T06:56:04;22.00;99.90
11666;DHT22;5889;51.350;6.708;2023-06-22T06:58:31;22.10;99.90
11666;DHT22;5889;51.350;6.708;2023-06-22T07:00:59;22.20;99.90
11666;DHT22;5889;51.350;6.708;2023-06-22T07:03:26;22.20;99.90
11666;DHT22;5889;51.350;6.708;2023-06-22T07:05:53;22.20;99.90
11666;DHT22;5889;51.350;6.708;2023-06-22T07:08:22;22.30;99.90
11666;DHT22;5889;51.350;6.708;2023-06-22T07:10:50;22.30;99.90
11666;DHT22;5889;51.350;6.708;2023-06-22T07:13:20;22.30;99.90
11666;DHT22;5889;51.350;6.708;2023-06-22T07:15:47;22.30;99.90
11666;DHT22;5889;51.350;6.708;2023-06-22T07:18:13;22.30;99.90
11666;DHT22;5889;51.350;6.708;2023-06-22T07:20:41;22.40;99.90
11666;DHT22;5889;51.350;6.708;2023-06-22T07:23:08;22.50;99.90
11666;DHT22;5889;51.350;6.708;2023-06-22T07:25:35;22.50;99.90
11666;DHT22;5889;51.350;6.708;2023-06-22T07:28:03;22.60;99.90
11666;DHT22;5889;51.350;6.708;2023-06-22T07:30:32;22.70;99.90
11666;DHT22;5889;51.350;6.708;2023-06-22T07:33:00;22.90;99.90
11666;DHT22;5889;51.350;6.708;2023-06-22T07:35:29;22.90;99.90
11666;DHT22;5889;51.350;6.708;2023-06-22T07:37:57;22.90;99.90
11666;DHT22;5889;51.350;6.708;2023-06-22T07:40:24;22.90;99.90
11666;DHT22;5889;51.350;6.708;2023-06-22T07:42:51;22.80;99.90
11666;DHT22;5889;51.350;6.708;2023-06-22T07:45:19;22.60;99.90
11666;DHT22;5889;51.350;6.708;2023-06-22T07:47:47;22.40;99.90
11666;DHT22;5889;51.350;6.708;2023-06-22T07:50:14;22.30;99.90
11666;DHT22;5889;51.350;6.708;2023-06-22T07:52:41;22.10;99.90
11666;DHT22;5889;51.350;6.708;2023-06-22T07:55:08;22.10;99.90
11666;DHT22;5889;51.350;6.708;2023-06-22T07:57:35;22.00;99.90
11666;DHT22;5889;51.350;6.708;2023-06-22T08:00:04;21.90;99.90
11666;DHT22;5889;51.350;6.708;2023-06-22T08:02:38;21.90;99.90
11666;DHT22;5889;51.350;6.708;2023-06-22T08:05:07;21.90;99.90
11666;DHT22;5889;51.350;6.708;2023-06-22T08:07:35;21.90;99.90
11666;DHT22;5889;51.350;6.708;2023-06-22T08:10:03;22.00;99.90
11666;DHT22;5889;51.350;6.708;2023-06-22T08:12:31;22.20;99.90
11666;DHT22;5889;51.350;6.708;2023-06-22T08:15:01;22.20;99.90
11666;DHT22;5889;51.350;6.708;2023-06-22T08:17:28;22.20;99.90
11666;DHT22;5889;51.350;6.708;2023-06-22T08:19:56;22.30;99.90
11666;DHT22;5889;51.350;6.708;2023-06-22T08:22:24;22.60;99.90
11666;DHT22;5889;51.350;6.708;2023-06-22T08:24:51;22.70;99.90
11666;DHT22;5889;51.350;6.708;2023-06-22T08:27:23;22.80;99.90
11666;DHT22;5889;51.350;6.708;2023-06-22T08:29:50;22.90;99.90
11666;DHT22;5889;51.350;6.708;2023-06-22T08:32:22;23.00;99.90
11666;DHT22;5889;51.350;6.708;2023-06-22T08:34:49;23.20;99.90
11666;DHT22;5889;51.350;6.708;2023-06-22T08:37:17;23.30;99.90
11666;DHT22;5889;51.350;6.708;2023-06-22T08:39:58;23.40;99.90
11666;DHT22;5889;51.350;6.708;2023-06-22T08:42:25;23.50;99.90
11666;DHT22;5889;51.350;6.708;2023-06-22T08:44:52;23.50;99.90
11666;DHT22;5889;51.350;6.708;2023-06-22T08:47:20;23.50;99.90
11666;DHT22;5889;51.350;6.708;2023-06-22T08:49:48;23.60;99.90
11666;DHT22;5889;51.350;6.708;2023-06-22T08:52:17;23.70;99.90
11666;DHT22;5889;51.350;6.708;2023-06-22T08:54:45;23.70;99.90
11666;DHT22;5889;51.350;6.708;2023-06-22T08:57:13;23.90;99.90
11666;DHT22;5889;51.350;6.708;2023-06-22T08:59:41;24.00;99.90
11666;DHT22;5889;51.350;6.708;2023-06-22T09:02:08;24.20;99.90
11666;DHT22;5889;51.350;6.708;2023-06-22T09:04:35;24.30;99.90
11666;DHT22;5889;51.350;6.708;2023-06-22T09:07:03;24.50;99.90
11666;DHT22;5889;51.350;6.708;2023-06-22T09:09:30;24.70;99.90
11666;DHT22;5889;51.350;6.708;2023-06-22T09:11:57;24.90;99.90
11666;DHT22;5889;51.350;6.708;2023-06-22T09:14:28;25.10;99.90
11666;DHT22;5889;51.350;6.708;2023-06-22T09:16:55;25.50;99.90
11666;DHT22;5889;51.350;6.708;2023-06-22T09:19:22;25.70;99.90
11666;DHT22;5889;51.350;6.708;2023-06-22T09:21:49;25.70;99.90
11666;DHT22;5889;51.350;6.708;2023-06-22T09:24:16;25.80;99.90
11666;DHT22;5889;51.350;6.708;2023-06-22T09:26:43;26.10;99.90
11666;DHT22;5889;51.350;6.708;2023-06-22T09:29:10;26.30;99.90
11666;DHT22;5889;51.350;6.708;2023-06-22T09:31:40;26.40;99.90
11666;DHT22;5889;51.350;6.708;2023-06-22T09:34:07;26.40;99.90
11666;DHT22;5889;51.350;6.708;2023-06-22T09:36:34;26.30;99.90
11666;DHT22;5889;51.350;6.708;2023-06-22T09:39:01;26.40;99.90
11666;DHT22;5889;51.350;6.708;2023-06-22T09:41:31;26.60;99.90
11666;DHT22;5889;51.350;6.708;2023-06-22T09:43:58;26.60;99.90
11666;DHT22;5889;51.350;6.708;2023-06-22T09:46:25;26.60;99.90
11666;DHT22;5889;51.350;6.708;2023-06-22T09:48:54;26.50;99.90
11666;DHT22;5889;51.350;6.708;2023-06-22T09:51:22;26.40;99.90
11666;DHT22;5889;51.350;6.708;2023-06-22T09:53:49;26.50;99.90
11666;DHT22;5889;51.350;6.708;2023-06-22T09:56:17;26.60;99.90
11666;DHT22;5889;51.350;6.708;2023-06-22T09:58:45;26.70;99.90
11666;DHT22;5889;51.350;6.708;2023-06-22T10:01:13;26.60;99.90
11666;DHT22;5889;51.350;6.708;2023-06-22T10:03:40;26.80;99.90
11666;DHT22;5889;51.350;6.708;2023-06-22T10:06:09;26.70;99.90
11666;DHT22;5889;51.350;6.708;2023-06-22T10:08:36;26.80;99.90
11666;DHT22;5889;51.350;6.708;2023-06-22T10:11:05;26.80;99.90
11666;DHT22;5889;51.350;6.708;2023-06-22T10:13:32;26.80;99.90
11666;DHT22;5889;51.350;6.708;2023-06-22T10:15:59;26.90;99.90
11666;DHT22;5889;51.350;6.708;2023-06-22T10:18:26;27.10;99.80
11666;DHT22;5889;51.350;6.708;2023-06-22T10:20:52;27.20;99.60
11666;DHT22;5889;51.350;6.708;2023-06-22T10:23:21;27.30;99.60
11666;DHT22;5889;51.350;6.708;2023-06-22T10:25:48;27.30;99.20
11666;DHT22;5889;51.350;6.708;2023-06-22T10:28:15;27.10;98.90
11666;DHT22;5889;51.350;6.708;2023-06-22T10:30:42;26.90;99.50
11666;DHT22;5889;51.350;6.708;2023-06-22T10:33:13;26.90;99.60
11666;DHT22;5889;51.350;6.708;2023-06-22T10:35:40;26.90;99.40
11666;DHT22;5889;51.350;6.708;2023-06-22T10:38:07;26.80;99.20
11666;DHT22;5889;51.350;6.708;2023-06-22T10:40:35;26.60;99.60
11666;DHT22;5889;51.350;6.708;2023-06-22T10:43:02;26.70;99.70
11666;DHT22;5889;51.350;6.708;2023-06-22T10:45:29;26.70;99.60
11666;DHT22;5889;51.350;6.708;2023-06-22T10:47:56;26.70;99.80
11666;DHT22;5889;51.350;6.708;2023-06-22T10:50:24;26.50;99.50
11666;DHT22;5889;51.350;6.708;2023-06-22T10:52:51;26.50;99.60
11666;DHT22;5889;51.350;6.708;2023-06-22T10:55:18;26.50;99.70
11666;DHT22;5889;51.350;6.708;2023-06-22T10:57:46;26.40;99.80
11666;DHT22;5889;51.350;6.708;2023-06-22T11:00:14;26.40;99.80
11666;DHT22;5889;51.350;6.708;2023-06-22T11:02:41;26.30;99.90
11666;DHT22;5889;51.350;6.708;2023-06-22T11:05:08;26.20;99.90
11666;DHT22;5889;51.350;6.708;2023-06-22T11:07:36;26.20;99.90
11666;DHT22;5889;51.350;6.708;2023-06-22T11:10:04;26.10;99.90
11666;DHT22;5889;51.350;6.708;2023-06-22T11:12:31;25.80;99.90
11666;DHT22;5889;51.350;6.708;2023-06-22T11:14:59;25.70;99.90
11666;DHT22;5889;51.350;6.708;2023-06-22T11:17:26;25.60;99.90
11666;DHT22;5889;51.350;6.708;2023-06-22T11:19:53;25.70;99.90
11666;DHT22;5889;51.350;6.708;2023-06-22T11:22:20;25.70;99.90
11666;DHT22;5889;51.350;6.708;2023-06-22T11:24:47;25.70;99.90
11666;DHT22;5889;51.350;6.708;2023-06-22T11:27:14;25.50;99.90
11666;DHT22;5889;51.350;6.708;2023-06-22T11:29:41;25.30;99.90
11666;DHT22;5889;51.350;6.708;2023-06-22T11:32:10;25.00;99.90
11666;DHT22;5889;51.350;6.708;2023-06-22T11:34:37;24.30;99.90
11666;DHT22;5889;51.350;6.708;2023-06-22T11:37:04;23.60;99.90
11666;DHT22;5889;51.350;6.708;2023-06-22T11:39:31;23.40;99.90
11666;DHT22;5889;51.350;6.708;2023-06-22T11:41:58;23.30;99.90
11666;DHT22;5889;51.350;6.708;2023-06-22T11:44:25;23.10;99.90
11666;DHT22;5889;51.350;6.708;2023-06-22T11:46:52;22.90;99.90
11666;DHT22;5889;51.350;6.708;2023-06-22T11:49:20;22.80;99.90
11666;DHT22;5889;51.350;6.708;2023-06-22T11:51:47;22.80;99.90
11666;DHT22;5889;51.350;6.708;2023-06-22T11:54:14;22.60;99.90
11666;DHT22;5889;51.350;6.708;2023-06-22T11:56:41;22.50;99.90
11666;DHT22;5889;51.350;6.708;2023-06-22T11:59:08;22.40;99.90
11666;DHT22;5889;51.350;6.708;2023-06-22T12:01:35;22.30;99.90
11666;DHT22;5889;51.350;6.708;2023-06-22T12:04:02;22.20;99.90
11666;DHT22;5889;51.350;6.708;2023-06-22T12:06:32;22.20;99.90
11666;DHT22;5889;51.350;6.708;2023-06-22T12:09:00;22.20;99.90
11666;DHT22;5889;51.350;6.708;2023-06-22T12:11:30;22.30;99.90
11666;DHT22;5889;51.350;6.708;2023-06-22T12:13:57;22.30;99.90
11666;DHT22;5889;51.350;6.708;2023-06-22T12:16:27;22.20;99.90
11666;DHT22;5889;51.350;6.708;2023-06-22T12:18:54;22.30;99.90
11666;DHT22;5889;51.350;6.708;2023-06-22T12:21:21;22.50;99.90
11666;DHT22;5889;51.350;6.708;2023-06-22T12:23:49;22.70;99.90
11666;DHT22;5889;51.350;6.708;2023-06-22T12:26:16;22.80;99.90
11666;DHT22;5889;51.350;6.708;2023-06-22T12:28:43;22.80;99.90
11666;DHT22;5889;51.350;6.708;2023-06-22T12:31:10;22.80;99.90
11666;DHT22;5889;51.350;6.708;2023-06-22T12:33:37;22.90;99.90
11666;DHT22;5889;51.350;6.708;2023-06-22T12:36:04;23.00;99.90
11666;DHT22;5889;51.350;6.708;2023-06-22T12:38:31;23.10;99.90
11666;DHT22;5889;51.350;6.708;2023-06-22T12:41:00;23.10;99.90
11666;DHT22;5889;51.350;6.708;2023-06-22T12:43:27;23.10;99.90
11666;DHT22;5889;51.350;6.708;2023-06-22T12:45:54;23.10;99.90
11666;DHT22;5889;51.350;6.708;2023-06-22T12:48:21;23.20;99.90
11666;DHT22;5889;51.350;6.708;2023-06-22T12:50:50;23.20;99.90
11666;DHT22;5889;51.350;6.708;2023-06-22T12:53:17;23.30;99.90
11666;DHT22;5889;51.350;6.708;2023-06-22T12:55:44;23.20;99.90
11666;DHT22;5889;51.350;6.708;2023-06-22T12:58:12;23.20;99.90
11666;DHT22;5889;51.350;6.708;2023-06-22T13:00:39;23.20;99.90
11666;DHT22;5889;51.350;6.708;2023-06-22T13:03:06;23.20;99.90
11666;DHT22;5889;51.350;6.708;2023-06-22T13:05:33;23.20;99.90
11666;DHT22;5889;51.350;6.708;2023-06-22T13:08:01;23.20;99.90
11666;DHT22;5889;51.350;6.708;2023-06-22T13:10:28;23.10;99.90
11666;DHT22;5889;51.350;6.708;2023-06-22T13:12:55;23.10;99.90
11666;DHT22;5889;51.350;6.708;2023-06-22T13:15:27;23.10;99.90
11666;DHT22;5889;51.350;6.708;2023-06-22T13:17:55;23.10;99.90
11666;DHT22;5889;51.350;6.708;2023-06-22T13:20:22;23.20;99.90
11666;DHT22;5889;51.350;6.708;2023-06-22T13:22:49;23.20;99.90
11666;DHT22;5889;51.350;6.708;2023-06-22T13:25:16;23.30;99.90
11666;DHT22;5889;51.350;6.708;2023-06-22T13:27:45;23.30;99.90
11666;DHT22;5889;51.350;6.708;2023-06-22T13:30:12;23.30;99.90
11666;DHT22;5889;51.350;6.708;2023-06-22T13:32:41;23.30;99.90
11666;DHT22;5889;51.350;6.708;2023-06-22T13:35:08;23.30;99.90
11666;DHT22;5889;51.350;6.708;2023-06-22T13:37:37;23.30;99.90
11666;DHT22;5889;51.350;6.708;2023-06-22T13:40:05;23.50;99.90
11666;DHT22;5889;51.350;6.708;2023-06-22T13:42:32;23.60;99.90
11666;DHT22;5889;51.350;6.708;2023-06-22T13:44:59;23.70;99.90
11666;DHT22;5889;51.350;6.708;2023-06-22T13:47:26;23.90;99.90
11666;DHT22;5889;51.350;6.708;2023-06-22T13:49:54;23.90;99.90
11666;DHT22;5889;51.350;6.708;2023-06-22T13:52:21;24.00;99.90
11666;DHT22;5889;51.350;6.708;2023-06-22T13:54:48;24.00;99.90
11666;DHT22;5889;51.350;6.708;2023-06-22T13:57:15;24.10;99.90
11666;DHT22;5889;51.350;6.708;2023-06-22T13:59:42;24.10;99.90
11666;DHT22;5889;51.350;6.708;2023-06-22T14:02:09;24.10;99.90
11666;DHT22;5889;51.350;6.708;2023-06-22T14:04:36;24.20;99.90
11666;DHT22;5889;51.350;6.708;2023-06-22T14:07:05;24.20;99.90
11666;DHT22;5889;51.350;6.708;2023-06-22T14:09:32;24.10;99.90
11666;DHT22;5889;51.350;6.708;2023-06-22T14:12:03;24.10;99.90
11666;DHT22;5889;51.350;6.708;2023-06-22T14:14:30;23.90;99.90
11666;DHT22;5889;51.350;6.708;2023-06-22T14:16:57;23.80;99.90
11666;DHT22;5889;51.350;6.708;2023-06-22T14:19:24;23.70;99.90
11666;DHT22;5889;51.350;6.708;2023-06-22T14:21:51;23.60;99.90
11666;DHT22;5889;51.350;6.708;2023-06-22T14:24:20;23.50;99.90
11666;DHT22;5889;51.350;6.708;2023-06-22T14:26:47;23.50;99.90
11666;DHT22;5889;51.350;6.708;2023-06-22T14:29:14;23.40;99.90
11666;DHT22;5889;51.350;6.708;2023-06-22T14:31:44;23.30;99.90
11666;DHT22;5889;51.350;6.708;2023-06-22T14:34:12;23.40;99.90
11666;DHT22;5889;51.350;6.708;2023-06-22T14:36:40;23.40;99.90
11666;DHT22;5889;51.350;6.708;2023-06-22T14:39:07;23.40;99.90
11666;DHT22;5889;51.350;6.708;2023-06-22T14:41:35;23.40;99.90
11666;DHT22;5889;51.350;6.708;2023-06-22T14:44:02;23.30;99.90
11666;DHT22;5889;51.350;6.708;2023-06-22T14:46:29;23.30;99.90
11666;DHT22;5889;51.350;6.708;2023-06-22T14:48:56;23.30;99.90
11666;DHT22;5889;51.350;6.708;2023-06-22T14:51:23;23.30;99.90
11666;DHT22;5889;51.350;6.708;2023-06-22T14:53:50;23.20;99.90
11666;DHT22;5889;51.350;6.708;2023-06-22T14:56:17;23.20;99.90
11666;DHT22;5889;51.350;6.708;2023-06-22T14:58:46;23.10;99.90
11666;DHT22;5889;51.350;6.708;2023-06-22T15:01:13;23.10;99.90
11666;DHT22;5889;51.350;6.708;2023-06-22T15:03:40;23.00;99.90
11666;DHT22;5889;51.350;6.708;2023-06-22T15:06:09;23.00;99.90
11666;DHT22;5889;51.350;6.708;2023-06-22T15:08:37;22.80;99.90
11666;DHT22;5889;51.350;6.708;2023-06-22T15:11:05;22.70;99.90
11666;DHT22;5889;51.350;6.708;2023-06-22T15:13:32;22.70;99.90
11666;DHT22;5889;51.350;6.708;2023-06-22T15:16:01;22.70;99.90
11666;DHT22;5889;51.350;6.708;2023-06-22T15:18:29;22.60;99.90
11666;DHT22;5889;51.350;6.708;2023-06-22T15:20:56;22.60;99.90
11666;DHT22;5889;51.350;6.708;2023-06-22T15:23:24;22.50;99.90
11666;DHT22;5889;51.350;6.708;2023-06-22T15:25:51;22.40;99.90
11666;DHT22;5889;51.350;6.708;2023-06-22T15:28:18;22.40;99.90
11666;DHT22;5889;51.350;6.708;2023-06-22T15:30:46;22.40;99.90
11666;DHT22;5889;51.350;6.708;2023-06-22T15:33:15;22.30;99.90
11666;DHT22;5889;51.350;6.708;2023-06-22T15:35:42;22.30;99.90
11666;DHT22;5889;51.350;6.708;2023-06-22T15:38:09;22.30;99.90
11666;DHT22;5889;51.350;6.708;2023-06-22T15:40:36;22.30;99.90
11666;DHT22;5889;51.350;6.708;2023-06-22T15:43:03;22.30;99.90
11666;DHT22;5889;51.350;6.708;2023-06-22T15:45:30;22.30;99.90
11666;DHT22;5889;51.350;6.708;2023-06-22T15:47:57;22.30;99.90